Swink, OK (74761)

5:14 PM CDT on July 23, 2014 (GMT -0500)
Stamper Municipal (KHHW) Elev 571 ft | 34.03 °N, 95.54 °W | Change Station

Current weather conditions updated 19 minutes ago

Clear
Clear
89 °F
Feels Like 97 °F
N
5
Wind Variable Wind from NW

Tomorrow is forecast to be nearly the same temperature as today.

Today
High -- | Low -- °F
--% Chance of Precip.
Yesterday
High -- | Low -- °F
Precip. -- in
6:25 AM 8:28 PM
Waning Crescent, 8% visible
Pressure 30.00 in
Visibility 10.0 miles
Clouds Clear
Heat Index 97 °F
Dew Point 74 °F
Humidity 61%
Rainfall 0.00 in
Snow Depth Not available.
UV 6 out of 12
Pollen 4.20 out of 12
Air Quality Not available.
Flu Activity Not available.
METAR KHHW 232155Z AUTO 31004KT 10SM CLR 32/23 A3000 RMK AO2 LTG DSNT ALQS T03150231

More Conditions Fewer Conditions

Pressure 30.00 in
Visibility 10.0 miles
Clouds Clear
Heat Index 97 °F
Dew Point 74 °F
Humidity 61%
Rainfall 0.00 in
Snow Depth Not available.
UV 6 out of 12
Pollen 4.20 out of 12
Air Quality Not available.
Flu Activity Not available.
METAR KHHW 232155Z AUTO 31004KT 10SM CLR 32/23 A3000 RMK AO2 LTG DSNT ALQS T03150231

More Conditions Fewer Conditions

10-Day Weather Forecast

Almanac

Astronomy

Jul. 23, 2014 Rise Set
Actual Time 6:25 AM CDT 8:28 PM CDT
Civil Twilight 5:57 AM CDT 8:56 PM CDT
Nautical Twilight 5:23 AM CDT 9:30 PM CDT
Astronomical Twilight 4:47 AM CDT 10:06 PM CDT
Moon 3:44 AM CDT 5:58 PM CDT
Length of Visible Light 14h 58m
Length of Day
14h 02m
Tomorrow will be 1m 22s shorter.
Waning Crescent, 8% of the Moon is Illuminated
Today
Waning Crescent
Jul 26
New
Aug 3
First Quarter
Aug 10
Full
Aug 17
Last Quarter

Today's Extremes

State Highs State Lows

Community

WunderPhotos

Upload Photos

1,736,802 photos uploaded!

Nearby

Snow Depth

Station Depth Elevation
No new snow has been reported.

Earthquake Activity

City Distance Mag. Time & Date
Harrah, Oklahoma 152 miles 2.8 6:02 PM CDT
2014-07-16
Minimum magnitude displayed is 2.5.

Coastal Water Temperatures

Place Temperature
No Stations Reporting

Nearby Weather Stations

There are no personal weather stations in this area.